| time (UTC) | temp C | wind direction | speed KPH | gust KPH | rain 1hr cm | rain 24hr cm | rain mn cm | humidity % | barometer mb |
| 20260906231606 | 18 | 313 | 8.0 | 16.1 | 0.00 | 0.08 | 0.00 | 72 | 1015.0 |
| 20260906230111 | 18 | 300 | 11.3 | 17.7 | 0.00 | 0.08 | 0.00 | 71 | 1015.3 |
| 20260906224600 | 18 | 313 | 9.7 | 14.5 | 0.00 | 0.08 | 0.00 | 71 | 1015.2 |
| 20260906223105 | 18 | 292 | 6.4 | 14.5 | 0.00 | 0.08 | 0.00 | 71 | 1015.5 |
| 20260906221608 | 18 | 283 | 11.3 | 16.1 | 0.00 | 0.08 | 0.00 | 72 | 1015.5 |
| 20260906220109 | 18 | 295 | 8.0 | 12.9 | 0.00 | 0.08 | 0.00 | 68 | 1015.5 |
| 20260906214605 | 18 | 304 | 3.2 | 8.0 | 0.00 | 0.08 | 0.00 | 67 | 1015.5 |
| 20260906213108 | 18 | 22 | 3.2 | 6.4 | 0.00 | 0.08 | 0.00 | 67 | 1015.4 |
| 20260906211607 | 18 | 345 | 3.2 | 9.7 | 0.00 | 0.08 | 0.00 | 67 | 1015.5 |
| 20260906210114 | 18 | 47 | 4.8 | 8.0 | 0.00 | 0.08 | 0.00 | 67 | 1015.6 |
| 20260906204608 | 18 | 348 | 3.2 | 8.0 | 0.00 | 0.08 | 0.00 | 68 | 1015.4 |
| 20260906203105 | 18 | 0 | 1.6 | 6.4 | 0.00 | 0.08 | 0.00 | 69 | 1015.7 |
| 20260906201606 | 17 | 49 | 3.2 | 9.7 | 0.00 | 0.08 | 0.00 | 70 | 1015.6 |
| 20260906200120 | 17 | 113 | 3.2 | 9.7 | 0.00 | 0.08 | 0.00 | 71 | 1015.8 |
| 20260906194618 | 17 | 39 | 1.6 | 8.0 | 0.00 | 0.08 | 0.00 | 71 | 1015.9 |
| 20260906193109 | 17 | 75 | 1.6 | 8.0 | 0.00 | 0.08 | 0.00 | 72 | 1016.2 |
| 20260906191608 | 17 | 66 | 4.8 | 16.1 | 0.00 | 0.08 | 0.00 | 72 | 1016.2 |
| 20260906190145 | 17 | 75 | 8.0 | 14.5 | 0.00 | 0.08 | 0.00 | 73 | 1016.3 |
| 20260906184605 | 16 | 61 | 9.7 | 17.7 | 0.00 | 0.08 | 0.00 | 73 | 1016.3 |
| 20260906183110 | 16 | 30 | 9.7 | 20.9 | 0.00 | 0.08 | 0.00 | 76 | 1016.3 |
| 20260906181613 | 16 | 52 | 12.9 | 20.9 | 0.00 | 0.08 | 0.00 | 79 | 1016.7 |
| 20260906180108 | 15 | 25 | 9.7 | 20.9 | 0.00 | 0.08 | 0.00 | 81 | 1017.0 |
| 20260906174605 | 15 | 75 | 6.4 | 14.5 | 0.00 | 0.08 | 0.00 | 82 | 1017.1 |
| 20260906173113 | 15 | 22 | 12.9 | 22.5 | 0.00 | 0.08 | 0.00 | 83 | 1016.5 |
| 20260906171606 | 14 | 68 | 6.4 | 12.9 | 0.00 | 0.08 | 0.00 | 83 | 1017.3 |
| 20260906170109 | 13 | 319 | 6.4 | 16.1 | 0.00 | 0.08 | 0.00 | 83 | 1018.1 |
| 20260906164605 | 13 | 295 | 6.4 | 12.9 | 0.00 | 0.08 | 0.00 | 82 | 1018.2 |
| 20260906163107 | 13 | 300 | 6.4 | 12.9 | 0.00 | 0.08 | 0.00 | 80 | 1018.3 |
| 20260906161605 | 13 | 307 | 6.4 | 14.5 | 0.00 | 0.08 | 0.00 | 80 | 1018.3 |
| 20260906160104 | 13 | 302 | 6.4 | 12.9 | 0.00 | 0.08 | 0.00 | 80 | 1018.2 |
| 20260906154615 | 13 | 290 | 6.4 | 11.3 | 0.00 | 0.08 | 0.00 | 79 | 1018.4 |
| 20260906153104 | 13 | 298 | 6.4 | 11.3 | 0.00 | 0.08 | 0.00 | 79 | 1018.6 |
| 20260906151610 | 13 | 323 | 9.7 | 24.1 | 0.00 | 0.08 | 0.00 | 80 | 1018.8 |
| 20260906150106 | 13 | 300 | 8.0 | 19.3 | 0.00 | 0.08 | 0.00 | 82 | 1018.7 |
| 20260906144604 | 13 | 296 | 12.9 | 24.1 | 0.00 | 0.08 | 0.00 | 82 | 1019.2 |
| 20260906143113 | 14 | 303 | 11.3 | 22.5 | 0.00 | 0.08 | 0.00 | 82 | 1019.1 |
| 20260906141604 | 15 | 298 | 8.0 | 11.3 | 0.00 | 0.08 | 0.00 | 83 | 1018.9 |
| 20260906134609 | 15 | 322 | 0.0 | 1.6 | 0.00 | 0.20 | 0.00 | 81 | 1018.5 |
| 20260906133118 | 15 | 0 | 0.0 | 4.8 | 0.00 | 0.20 | 0.00 | 81 | 1018.6 |
| 20260906131604 | 15 | 0 | 0.0 | 11.3 | 0.00 | 0.20 | 0.00 | 81 | 1018.5 |
| 20260906130119 | 15 | 0 | 3.2 | 11.3 | 0.00 | 0.20 | 0.00 | 83 | 1018.7 |
| 20260906124604 | 15 | 323 | 6.4 | 19.3 | 0.00 | 0.20 | 0.00 | 82 | 1018.4 |
| 20260906123100 | 15 | 20 | 9.7 | 19.3 | 0.00 | 0.20 | 0.00 | 82 | 1018.3 |
| 20260906121559 | 15 | 40 | 11.3 | 24.1 | 0.00 | 0.20 | 0.00 | 82 | 1018.1 |
| 20260906120107 | 15 | 360 | 11.3 | 20.9 | 0.00 | 0.20 | 0.00 | 82 | 1017.8 |
| 20260906114601 | 15 | 329 | 9.7 | 24.1 | 0.00 | 0.20 | 0.00 | 81 | 1018.0 |
| 20260906113104 | 15 | 37 | 6.4 | 19.3 | 0.00 | 0.20 | 0.00 | 81 | 1018.2 |
| 20260906111559 | 15 | 332 | 8.0 | 22.5 | 0.00 | 0.20 | 0.00 | 81 | 1018.2 |
| 20260906110107 | 15 | 18 | 11.3 | 25.7 | 0.00 | 0.20 | 0.00 | 81 | 1018.2 |
| 20260906104605 | 15 | 341 | 8.0 | 19.3 | 0.00 | 0.20 | 0.00 | 80 | 1018.3 |
| 20260906103106 | 15 | 345 | 8.0 | 24.1 | 0.00 | 0.20 | 0.00 | 80 | 1018.4 |
| 20260906101610 | 15 | 1 | 11.3 | 22.5 | 0.00 | 0.20 | 0.00 | 80 | 1018.2 |
| 20260906100109 | 14 | 338 | 6.4 | 16.1 | 0.00 | 0.20 | 0.00 | 81 | 1018.4 |
| 20260906094611 | 15 | 328 | 6.4 | 19.3 | 0.00 | 0.20 | 0.00 | 80 | 1018.6 |
| 20260906093118 | 15 | 25 | 6.4 | 19.3 | 0.00 | 0.20 | 0.00 | 81 | 1018.4 |
| 20260906091606 | 14 | 29 | 8.0 | 19.3 | 0.00 | 0.20 | 0.00 | 82 | 1018.4 |
| 20260906090139 | 14 | 338 | 8.0 | 12.9 | 0.00 | 0.20 | 0.00 | 82 | 1018.7 |
| 20260906084627 | 14 | 321 | 3.2 | 12.9 | 0.00 | 0.20 | 0.00 | 83 | 1019.0 |
| 20260906083105 | 14 | 295 | 8.0 | 16.1 | 0.00 | 0.20 | 0.00 | 83 | 1019.2 |
| 20260906081604 | 14 | 300 | 4.8 | 12.9 | 0.00 | 0.20 | 0.00 | 83 | 1019.5 |
| 20260906080110 | 14 | 290 | 9.7 | 16.1 | 0.00 | 0.20 | 0.00 | 82 | 1019.6 |
| 20260906074603 | 14 | 257 | 6.4 | 11.3 | 0.00 | 0.20 | 0.00 | 81 | 1019.7 |
| 20260906073105 | 14 | 286 | 0.0 | 8.0 | 0.00 | 0.20 | 0.00 | 80 | 1019.7 |
| 20260906071604 | 14 | 0 | 1.6 | 6.4 | 0.00 | 0.20 | 0.00 | 80 | 1019.6 |
| 20260906070107 | 14 | 300 | 1.6 | 6.4 | 0.00 | 0.20 | 0.00 | 80 | 1019.9 |
| 20260906064601 | 14 | 274 | 3.2 | 11.3 | 0.00 | 0.20 | 0.00 | 80 | 1019.9 |
| 20260906063106 | 14 | 281 | 1.6 | 8.0 | 0.00 | 0.20 | 0.00 | 81 | 1020.0 |
| 20260906061608 | 14 | 304 | 3.2 | 6.4 | 0.00 | 0.20 | 0.00 | 82 | 1020.4 |
| 20260906060108 | 14 | 293 | 4.8 | 9.7 | 0.00 | 0.20 | 0.00 | 82 | 1020.4 |
| 20260906054608 | 14 | 277 | 4.8 | 6.4 | 0.00 | 0.20 | 0.20 | 80 | 1020.3 |
| 20260906053119 | 14 | 304 | 4.8 | 8.0 | 0.00 | 0.20 | 0.20 | 81 | 1020.4 |
| 20260906051608 | 14 | 278 | 3.2 | 6.4 | 0.03 | 0.20 | 0.20 | 83 | 1019.9 |
| 20260906050107 | 14 | 295 | 9.7 | 14.5 | 0.03 | 0.20 | 0.20 | 80 | 1019.6 |
| 20260906044620 | 14 | 309 | 8.0 | 17.7 | 0.03 | 0.20 | 0.20 | 80 | 1019.3 |
| 20260906043104 | 15 | 338 | 11.3 | 19.3 | 0.03 | 0.20 | 0.20 | 77 | 1019.3 |
| 20260906041609 | 15 | 307 | 4.8 | 24.1 | 0.00 | 0.18 | 0.18 | 76 | 1019.5 |
| 20260906040105 | 15 | 335 | 9.7 | 22.5 | 0.00 | 0.18 | 0.18 | 74 | 1018.6 |
| 20260906034602 | 15 | 342 | 14.5 | 27.4 | 0.05 | 0.18 | 0.18 | 73 | 1018.3 |
| 20260906033105 | 15 | 345 | 14.5 | 24.1 | 0.05 | 0.18 | 0.18 | 73 | 1018.7 |
| 20260906031604 | 15 | 334 | 6.4 | 16.1 | 0.05 | 0.18 | 0.18 | 72 | 1019.0 |
| 20260906024624 | 17 | 120 | 11.3 | 27.4 | 0.00 | 0.13 | 0.13 | 61 | 1018.6 |
| 20260906023107 | 17 | 72 | 12.9 | 27.4 | 0.00 | 0.13 | 0.13 | 61 | 1016.9 |
| 20260906021608 | 17 | 65 | 11.3 | 24.1 | 0.00 | 0.13 | 0.13 | 58 | 1017.1 |
| 20260906020109 | 18 | 44 | 9.7 | 20.9 | 0.00 | 0.13 | 0.13 | 57 | 1017.0 |
| 20260906014608 | 18 | 33 | 8.0 | 16.1 | 0.00 | 0.13 | 0.13 | 55 | 1017.0 |
| 20260906013111 | 19 | 330 | 8.0 | 20.9 | 0.00 | 0.13 | 0.13 | 53 | 1017.0 |
| 20260906011605 | 20 | 93 | 8.0 | 16.1 | 0.00 | 0.13 | 0.13 | 51 | 1017.0 |
| 20260906010130 | 20 | 356 | 4.8 | 14.5 | 0.00 | 0.13 | 0.13 | 50 | 1017.1 |
| 20260906004603 | 21 | 257 | 6.4 | 16.1 | 0.00 | 0.13 | 0.13 | 49 | 1017.2 |
| 20260906003110 | 21 | 306 | 9.7 | 17.7 | 0.00 | 0.13 | 0.13 | 47 | 1017.1 |
| 20260906001615 | 22 | 315 | 11.3 | 20.9 | 0.00 | 0.13 | 0.13 | 44 | 1017.2 |
| 20260906000112 | 22 | 315 | 12.9 | 22.5 | 0.00 | 0.13 | 0.13 | 44 | 1017.3 |
| 20260905234610 | 22 | 310 | 6.4 | 16.1 | 0.00 | 0.13 | 0.13 | 44 | 1017.2 |
| 20260905233103 | 22 | 292 | 8.0 | 17.7 | 0.00 | 0.13 | 0.13 | 42 | 1017.4 |